Time;durP1;ratioP1;P1;durP2;ratioP2;P2;SDS_P1;SDS_P2;PMS_P1;PMS_P2;Temp;Humidity;BMP_temperature;BMP_pressure;BME280_temperature;BME280_humidity;BME280_pressure;Samples;Min_cycle;Max_cycle;Signal;HPM_P1;HPM_P2
2024/03/13 00:01:09;;;;;;;0.47;0.47;;;;;;;10.57;100.00;99458.75;5041342;28;20037;-75
2024/03/13 00:03:38;;;;;;;3.03;1.00;;;;;;;10.57;100.00;99453.38;5042077;28;20096;-75
2024/03/13 00:06:04;;;;;;;18.50;1.15;;;;;;;10.59;100.00;99452.38;5057617;28;20032;-75
2024/03/13 00:08:29;;;;;;;0.80;0.70;;;;;;;10.56;100.00;99454.44;5042224;28;20070;-75
2024/03/13 00:10:55;;;;;;;2.40;0.70;;;;;;;10.59;100.00;99455.88;5057758;28;20478;-74
2024/03/13 00:13:23;;;;;;;1.17;1.08;;;;;;;10.56;100.00;99445.53;5057982;28;20028;-75
2024/03/13 00:15:49;;;;;;;0.50;0.50;;;;;;;10.59;100.00;99439.75;5041710;28;20474;-74
2024/03/13 00:18:14;;;;;;;0.50;0.50;;;;;;;10.58;100.00;99432.69;5057468;28;20071;-75
2024/03/13 00:20:41;;;;;;;0.50;0.50;;;;;;;10.59;100.00;99439.75;5074387;28;20024;-75
2024/03/13 00:23:09;;;;;;;0.60;0.60;;;;;;;10.56;100.00;99432.09;5057876;28;20020;-74
2024/03/13 00:25:35;;;;;;;0.70;0.60;;;;;;;10.59;100.00;99441.63;5058210;28;20032;-74
2024/03/13 00:28:02;;;;;;;0.50;0.50;;;;;;;10.60;100.00;99444.06;5041670;28;20139;-75
2024/03/13 00:30:27;;;;;;;0.95;0.70;;;;;;;10.61;100.00;99431.44;5074024;28;20161;-75
2024/03/13 00:32:54;;;;;;;1.45;0.60;;;;;;;10.62;100.00;99438.50;5057847;28;20131;-75
2024/03/13 00:35:23;;;;;;;0.70;0.70;;;;;;;10.60;100.00;99435.19;5057451;28;20040;-75
2024/03/13 00:37:49;;;;;;;0.43;0.43;;;;;;;10.62;100.00;99443.88;5041073;28;20036;-75
2024/03/13 00:40:17;;;;;;;0.70;0.70;;;;;;;10.62;100.00;99433.94;5057338;28;20086;-75
2024/03/13 00:42:44;;;;;;;0.60;0.60;;;;;;;10.63;100.00;99427.53;5057439;28;20473;-75
2024/03/13 00:45:13;;;;;;;0.50;0.50;;;;;;;10.64;100.00;99431.03;5040894;28;20036;-75
2024/03/13 00:47:38;;;;;;;3.10;0.50;;;;;;;10.64;100.00;99431.03;5057787;28;20029;-75
2024/03/13 00:50:08;;;;;;;0.40;0.40;;;;;;;10.65;100.00;99427.31;5057424;28;20413;-75
2024/03/13 00:52:36;;;;;;;0.40;0.40;;;;;;;10.64;100.00;99423.81;5057958;28;20032;-75
2024/03/13 00:55:03;;;;;;;0.40;0.40;;;;;;;10.67;100.00;99426.09;5041043;28;20037;-75
2024/03/13 00:57:28;;;;;;;2.25;0.70;;;;;;;10.65;100.00;99427.31;5057414;28;20091;-75
2024/03/13 00:59:54;;;;;;;0.52;0.50;;;;;;;10.67;100.00;99423.41;5040661;28;20434;-74
2024/03/13 01:02:22;;;;;;;0.50;0.50;;;;;;;10.67;100.00;99430.63;5040561;28;20032;-74
2024/03/13 01:04:48;;;;;;;0.50;0.50;;;;;;;10.68;100.00;99425.03;5040788;28;20025;-74
2024/03/13 01:07:14;;;;;;;0.60;0.60;;;;;;;10.68;100.00;99422.34;5057027;28;20063;-75
2024/03/13 01:09:40;;;;;;;0.47;0.47;;;;;;;10.71;100.00;99424.63;5057123;28;20032;-75
2024/03/13 01:12:06;;;;;;;0.60;0.60;;;;;;;10.70;100.00;99428.34;5039238;28;20082;-74
2024/03/13 01:14:32;;;;;;;0.60;0.60;;;;;;;10.74;100.00;99423.38;5056917;28;20041;-75
2024/03/13 01:17:00;;;;;;;1.20;0.60;;;;;;;10.75;100.00;99425.03;5040353;28;20037;-75
2024/03/13 01:19:30;;;;;;;0.40;0.40;;;;;;;10.77;100.00;99425.66;5040540;28;20040;-75
2024/03/13 01:22:03;;;;;;;0.47;0.47;;;;;;;10.74;100.00;99418.00;5040457;28;20414;-74
2024/03/13 01:24:29;;;;;;;0.40;0.40;;;;;;;10.71;100.00;99405.78;5041252;28;20032;-75
2024/03/13 01:26:55;;;;;;;0.95;0.45;;;;;;;10.76;100.00;99413.25;5056732;28;20029;-75
2024/03/13 01:29:26;;;;;;;0.47;0.47;;;;;;;10.78;100.00;99416.56;5040009;28;20036;-74
2024/03/13 01:31:52;;;;;;;0.40;0.40;;;;;;;10.77;100.00;99410.34;5073146;28;20054;-74
2024/03/13 01:34:20;;;;;;;0.45;0.45;;;;;;;10.78;100.00;99419.25;5040065;28;20408;-74
2024/03/13 01:39:30;;;;;;;0.43;0.43;;;;;;;10.82;100.00;99408.88;5059379;28;20031;-75
2024/03/13 01:56:21;;;;;;;0.45;0.45;;;;;;;10.87;100.00;99398.31;5058708;28;20036;-75
2024/03/13 01:59:02;;;;;;;0.50;0.50;;;;;;;10.86;100.00;99392.13;5073245;28;20115;-74
2024/03/13 02:04:14;;;;;;;0.40;0.40;;;;;;;10.89;100.00;99388.19;5058435;28;20071;-74
2024/03/13 02:06:41;;;;;;;0.40;0.40;;;;;;;10.90;100.00;99387.13;5072150;28;20056;-74
2024/03/13 02:09:07;;;;;;;0.40;0.40;;;;;;;10.90;100.00;99376.38;5056039;28;20500;-74
2024/03/13 02:11:32;;;;;;;0.60;0.60;;;;;;;10.90;100.00;99379.91;5056054;28;20119;-75
2024/03/13 02:14:04;;;;;;;0.50;0.50;;;;;;;10.92;100.00;99382.38;5039305;28;20071;-75
2024/03/13 02:16:30;;;;;;;0.40;0.40;;;;;;;10.93;100.00;99374.13;5040251;28;20031;-74
2024/03/13 02:18:58;;;;;;;0.60;0.60;;;;;;;10.95;100.00;99376.56;5055472;28;20036;-74
2024/03/13 02:21:24;;;;;;;0.40;0.40;;;;;;;10.98;100.00;99371.63;5072238;28;20037;-75
2024/03/13 02:23:50;;;;;;;1.13;0.90;;;;;;;10.99;100.00;99385.88;5038766;28;20064;-75
2024/03/13 02:26:15;;;;;;;3.30;0.50;;;;;;;10.96;100.00;99376.38;5055497;28;20513;-74
2024/03/13 02:28:41;;;;;;;0.40;0.40;;;;;;;10.99;100.00;99385.88;5055690;28;20032;-74
2024/03/13 02:31:07;;;;;;;0.40;0.40;;;;;;;11.00;100.00;99376.75;5039122;28;20139;-74
2024/03/13 02:33:34;;;;;;;0.52;0.52;;;;;;;11.02;100.00;99377.38;5055780;28;20129;-75
2024/03/13 02:36:01;;;;;;;0.47;0.43;;;;;;;11.00;100.00;99377.59;5039272;28;20046;-74
2024/03/13 02:38:29;;;;;;;0.80;0.60;;;;;;;11.07;100.00;99380.25;5039343;28;20028;-74
2024/03/13 02:40:56;;;;;;;0.40;0.40;;;;;;;11.09;100.00;99385.44;5055670;28;20044;-74
2024/03/13 02:43:21;;;;;;;0.40;0.40;;;;;;;11.11;100.00;99391.41;5055458;28;20025;-75
2024/03/13 02:45:47;;;;;;;0.40;0.40;;;;;;;11.14;100.00;99389.16;5039177;28;20035;-75
2024/03/13 02:48:15;;;;;;;0.55;0.55;;;;;;;11.18;100.00;99387.66;5039081;28;20447;-75
2024/03/13 02:50:43;;;;;;;1.67;0.80;;;;;;;11.21;100.00;99387.22;5072082;28;20067;-75
2024/03/13 02:53:09;;;;;;;0.40;0.40;;;;;;;11.21;100.00;99384.53;5039717;28;20044;-75
2024/03/13 02:55:35;;;;;;;0.82;0.60;;;;;;;11.23;100.00;99379.78;5038929;28;20094;-75
2024/03/13 02:58:01;;;;;;;0.70;0.70;;;;;;;11.24;100.00;99372.53;5039098;28;20516;-75
2024/03/13 03:00:27;;;;;;;0.40;0.40;;;;;;;11.21;100.00;99381.84;5038885;28;20033;-75
2024/03/13 03:02:54;;;;;;;0.50;0.50;;;;;;;11.21;100.00;99384.53;5038881;28;20467;-75
2024/03/13 03:05:20;;;;;;;0.47;0.47;;;;;;;11.21;100.00;99381.03;5038872;28;20425;-74
2024/03/13 03:07:46;;;;;;;0.47;0.47;;;;;;;11.22;100.00;99382.69;5055377;28;20082;-75
2024/03/13 03:10:12;;;;;;;1.10;0.50;;;;;;;11.21;100.00;99373.78;5055487;28;20032;-75
2024/03/13 03:12:40;;;;;;;0.50;0.50;;;;;;;11.20;100.00;99379.41;5038795;28;20059;-75
2024/03/13 03:15:06;;;;;;;0.85;0.70;;;;;;;11.22;100.00;99380.00;5039174;28;20086;-75
2024/03/13 03:17:32;;;;;;;0.30;0.30;;;;;;;11.22;100.00;99385.38;5055251;28;20067;-75
2024/03/13 03:19:58;;;;;;;0.50;0.50;;;;;;;11.25;100.00;99384.13;5071664;28;20056;-75
2024/03/13 03:22:24;;;;;;;0.50;0.50;;;;;;;11.23;100.00;99378.97;5055279;28;20069;-75
2024/03/13 03:24:50;;;;;;;0.40;0.40;;;;;;;11.24;100.00;99372.53;5039136;28;20029;-75
2024/03/13 03:27:16;;;;;;;0.95;0.50;;;;;;;11.19;100.00;99375.03;5038720;28;20501;-75
2024/03/13 03:29:41;;;;;;;0.88;0.50;;;;;;;11.23;100.00;99377.09;5038816;28;20467;-75
2024/03/13 03:32:08;;;;;;;0.40;0.40;;;;;;;11.23;100.00;99370.88;5055310;28;20075;-75
2024/03/13 03:34:39;;;;;;;0.55;0.55;;;;;;;11.23;100.00;99371.72;5038987;28;20036;-75
2024/03/13 03:37:05;;;;;;;0.98;0.70;;;;;;;11.23;100.00;99365.50;5059862;28;20048;-75
2024/03/13 03:39:34;;;;;;;0.40;0.40;;;;;;;11.22;100.00;99367.38;5075371;28;20402;-74
2024/03/13 03:42:03;;;;;;;0.60;0.60;;;;;;;11.22;100.00;99377.31;5042104;28;20064;-75
2024/03/13 03:44:29;;;;;;;0.45;0.40;;;;;;;11.21;100.00;99371.09;5058827;28;20074;-74
2024/03/13 03:46:59;;;;;;;0.40;0.40;;;;;;;11.21;100.00;99356.81;5074921;28;20498;-75
2024/03/13 03:49:27;;;;;;;0.50;0.50;;;;;;;11.21;100.00;99360.31;5041825;28;20078;-75
2024/03/13 03:51:53;;;;;;;0.50;0.50;;;;;;;11.22;100.00;99374.63;5041990;28;20368;-75
2024/03/13 03:54:21;;;;;;;1.25;0.50;;;;;;;11.23;100.00;99369.00;5041758;28;20039;-75
2024/03/13 03:56:48;;;;;;;0.50;0.50;;;;;;;11.26;100.00;99370.44;5058840;28;20475;-75
2024/03/13 03:59:14;;;;;;;0.45;0.45;;;;;;;11.27;100.00;99372.09;5074834;28;20028;-75
2024/03/13 04:01:41;;;;;;;0.50;0.50;;;;;;;11.26;100.00;99381.22;5041877;28;20486;-75
2024/03/13 04:04:07;;;;;;;0.65;0.65;;;;;;;11.26;100.00;99402.75;5074827;28;20099;-76
2024/03/13 04:06:33;;;;;;;0.40;0.40;;;;;;;10.96;100.00;99397.88;5041781;28;20054;-75
2024/03/13 04:08:59;;;;;;;0.40;0.40;;;;;;;10.62;100.00;99417.00;5057689;28;20463;-75
2024/03/13 04:11:24;;;;;;;0.40;0.40;;;;;;;10.25;100.00;99421.94;5041661;28;20032;-75
2024/03/13 04:13:50;;;;;;;0.40;0.40;;;;;;;9.96;100.00;99429.34;5041562;28;20036;-75
2024/03/13 04:16:20;;;;;;;0.40;0.40;;;;;;;9.67;100.00;99439.41;5041491;28;20033;-75
2024/03/13 04:18:46;;;;;;;0.40;0.40;;;;;;;9.41;100.00;99437.47;5059130;28;20044;-76
2024/03/13 04:21:12;;;;;;;0.47;0.47;;;;;;;9.20;100.00;99435.72;5041375;28;20486;-75
2024/03/13 04:23:38;;;;;;;0.40;0.40;;;;;;;9.06;100.00;99430.50;5041307;28;20114;-75
2024/03/13 04:26:05;;;;;;;0.50;0.50;;;;;;;8.94;100.00;99430.22;5041362;28;20059;-75
2024/03/13 04:28:30;;;;;;;0.40;0.40;;;;;;;8.89;100.00;99438.03;5041259;28;20029;-75
2024/03/13 04:30:57;;;;;;;0.40;0.40;;;;;;;8.84;100.00;99433.28;5041285;28;20029;-75
2024/03/13 04:33:23;;;;;;;0.40;0.40;;;;;;;8.78;100.00;99432.19;5074257;28;20468;-75
2024/03/13 04:35:48;;;;;;;0.40;0.40;;;;;;;8.75;100.00;99437.94;5057805;28;20032;-75
2024/03/13 04:38:14;;;;;;;0.47;0.47;;;;;;;8.72;100.00;99441.03;5041121;28;20040;-75
2024/03/13 04:40:42;;;;;;;0.40;0.40;;;;;;;8.70;100.00;99442.25;5041560;28;20052;-75
2024/03/13 04:43:07;;;;;;;0.40;0.40;;;;;;;8.65;100.00;99448.19;5040847;28;20082;-75
2024/03/13 04:45:37;;;;;;;0.50;0.50;;;;;;;8.65;100.00;99450.03;5040995;28;20036;-75
2024/03/13 04:48:06;;;;;;;0.40;0.40;;;;;;;8.61;100.00;99451.47;5057269;28;20037;-74
2024/03/13 04:50:35;;;;;;;0.40;0.40;;;;;;;8.59;100.00;99454.31;5057120;28;20386;-75
2024/03/13 04:53:01;;;;;;;0.40;0.40;;;;;;;8.58;100.00;99458.03;5073892;28;20039;-75
2024/03/13 04:55:29;;;;;;;0.40;0.40;;;;;;;8.56;100.00;99462.75;5040690;28;20032;-75
2024/03/13 04:57:55;;;;;;;0.40;0.40;;;;;;;8.50;100.00;99450.97;5073364;28;20032;-75
2024/03/13 05:00:21;;;;;;;0.40;0.40;;;;;;;8.50;100.00;99444.78;5056837;28;20024;-75
2024/03/13 05:02:47;;;;;;;0.40;0.40;;;;;;;8.50;100.00;99450.16;5040594;28;20406;-75
2024/03/13 05:05:12;;;;;;;0.40;0.40;;;;;;;8.49;100.00;99446.63;5057336;28;20035;-75
2024/03/13 05:07:41;;;;;;;0.40;0.40;;;;;;;8.51;100.00;99451.78;5040436;28;20105;-75
2024/03/13 05:10:09;;;;;;;0.50;0.50;;;;;;;8.52;100.00;99458.78;5040750;28;20051;-74
2024/03/13 05:12:36;;;;;;;0.40;0.40;;;;;;;8.52;100.00;99459.66;5057797;28;20051;-74
2024/03/13 05:15:06;;;;;;;0.40;0.40;;;;;;;8.53;100.00;99465.81;5073154;28;20060;-75
2024/03/13 05:17:36;;;;;;;0.47;0.47;;;;;;;8.51;100.00;99466.00;5040403;28;20035;-75
2024/03/13 05:20:06;;;;;;;0.40;0.40;;;;;;;8.54;100.00;99472.84;5073148;28;20032;-75
2024/03/13 05:22:35;;;;;;;0.50;0.50;;;;;;;8.51;100.00;99457.16;5057234;28;20040;-74
2024/03/13 05:25:01;;;;;;;0.40;0.40;;;;;;;8.51;100.00;99462.50;5073320;28;20035;-74
2024/03/13 05:27:26;;;;;;;0.40;0.40;;;;;;;8.53;100.00;99471.19;5040154;28;20036;-74
2024/03/13 05:29:52;;;;;;;0.40;0.40;;;;;;;8.53;100.00;99469.31;5040165;28;20115;-74
2024/03/13 05:32:18;;;;;;;0.40;0.40;;;;;;;8.51;100.00;99475.91;5040120;28;20033;-75
2024/03/13 05:34:43;;;;;;;0.40;0.40;;;;;;;8.48;100.00;99476.28;5040070;28;20391;-75
2024/03/13 05:37:09;;;;;;;0.43;0.43;;;;;;;8.47;100.00;99474.66;5040050;28;20039;-75
2024/03/13 05:39:38;;;;;;;0.50;0.50;;;;;;;8.42;100.00;99471.72;5056092;28;20031;-75
2024/03/13 05:42:04;;;;;;;0.40;0.40;;;;;;;8.42;100.00;99471.72;5040281;28;20047;-74
2024/03/13 05:44:30;;;;;;;0.40;0.40;;;;;;;8.41;100.00;99484.25;5039695;28;20068;-74
2024/03/13 05:46:56;;;;;;;0.40;0.40;;;;;;;8.36;100.00;99481.28;5039987;28;20543;-75
2024/03/13 05:49:21;;;;;;;0.43;0.43;;;;;;;8.32;100.00;99485.41;5039824;28;20455;-74
2024/03/13 05:51:54;;;;;;;0.40;0.40;;;;;;;8.27;100.00;99491.31;5055936;28;20074;-75
2024/03/13 05:54:20;;;;;;;0.40;0.40;;;;;;;8.20;100.00;99493.09;5056808;28;20044;-74
2024/03/13 05:56:45;;;;;;;0.50;0.50;;;;;;;8.18;100.00;99495.16;5039589;28;20433;-75
2024/03/13 05:59:11;;;;;;;0.40;0.40;;;;;;;8.18;100.00;99494.31;5038802;28;20036;-75
2024/03/13 06:01:36;;;;;;;0.50;0.50;;;;;;;8.14;100.00;99507.25;5039650;28;20032;-75
2024/03/13 06:04:02;;;;;;;0.40;0.40;;;;;;;8.11;100.00;99488.91;5039391;28;20024;-75
2024/03/13 06:06:28;;;;;;;0.40;0.40;;;;;;;8.10;100.00;99503.31;5039543;28;20038;-75
2024/03/13 06:08:53;;;;;;;0.40;0.40;;;;;;;8.07;100.00;99501.84;5056007;28;20039;-75
2024/03/13 06:11:19;;;;;;;0.40;0.40;;;;;;;8.08;100.00;99502.69;5039524;28;20074;-75
2024/03/13 06:13:45;;;;;;;0.50;0.50;;;;;;;8.07;100.00;99495.66;5039591;28;20482;-75
2024/03/13 06:16:11;;;;;;;0.43;0.43;;;;;;;8.05;100.00;99505.75;5056007;28;20390;-75
2024/03/13 06:18:36;;;;;;;0.40;0.40;;;;;;;8.06;100.00;99504.72;5039531;28;20024;-75
2024/03/13 06:21:07;;;;;;;0.32;0.32;;;;;;;8.05;100.00;99503.88;5039156;28;20051;-75
2024/03/13 06:23:36;;;;;;;0.40;0.40;;;;;;;8.05;100.00;99509.25;5056998;28;20028;-75
2024/03/13 06:26:02;;;;;;;0.40;0.40;;;;;;;8.03;100.00;99507.78;5072060;28;20065;-75
2024/03/13 06:31:12;;;;;;;0.40;0.40;;;;;;;7.93;100.00;99505.41;5058712;28;20032;-75
2024/03/13 06:33:38;;;;;;;0.40;0.40;;;;;;;7.93;100.00;99503.53;5039361;28;20537;-75
2024/03/13 06:36:05;;;;;;;0.40;0.40;;;;;;;7.92;100.00;99504.56;5055477;28;20036;-75
2024/03/13 06:38:30;;;;;;;0.45;0.45;;;;;;;7.92;100.00;99509.91;5038876;28;20097;-75
2024/03/13 06:40:56;;;;;;;0.40;0.40;;;;;;;7.93;100.00;99514.25;5038874;28;20032;-75
2024/03/13 06:43:21;;;;;;;0.50;0.50;;;;;;;7.95;100.00;99513.25;5038706;28;20035;-75
2024/03/13 06:45:48;;;;;;;0.40;0.40;;;;;;;7.93;100.00;99508.06;5038951;28;20024;-75
2024/03/13 06:48:13;;;;;;;0.40;0.40;;;;;;;7.93;100.00;99516.91;5055436;28;20033;-75
2024/03/13 06:50:39;;;;;;;0.50;0.50;;;;;;;7.98;100.00;99521.72;5038565;28;20029;-75
2024/03/13 06:53:05;;;;;;;0.30;0.30;;;;;;;8.02;100.00;99531.03;5055233;28;20028;-75
2024/03/13 06:55:31;;;;;;;0.40;0.40;;;;;;;7.99;100.00;99530.56;5038812;28;20505;-74
2024/03/13 06:57:56;;;;;;;0.40;0.40;;;;;;;8.01;100.00;99528.53;5038727;28;20063;-74
2024/03/13 07:00:22;;;;;;;0.40;0.40;;;;;;;8.01;100.00;99531.22;5038634;28;20433;-75
2024/03/13 07:02:48;;;;;;;0.40;0.40;;;;;;;8.02;100.00;99522.16;5055130;28;20025;-75
2024/03/13 07:05:17;;;;;;;0.40;0.40;;;;;;;8.05;100.00;99519.94;5038526;28;20033;-75
2024/03/13 07:07:44;;;;;;;0.40;0.40;;;;;;;8.06;100.00;99520.78;5071592;28;20021;-75
2024/03/13 07:10:10;;;;;;;0.40;0.40;;;;;;;8.07;100.00;99517.91;5072867;28;20493;-75
2024/03/13 07:12:39;;;;;;;0.40;0.40;;;;;;;8.07;100.00;99519.75;5042193;28;20040;-75
2024/03/13 07:15:09;;;;;;;0.40;0.40;;;;;;;8.07;100.00;99523.28;5042276;28;20181;-75
2024/03/13 07:17:36;;;;;;;0.40;0.40;;;;;;;8.07;100.00;99515.25;5043294;28;20079;-74
2024/03/13 07:20:03;;;;;;;0.40;0.40;;;;;;;8.07;100.00;99511.72;5042799;28;20459;-74
2024/03/13 07:22:29;;;;;;;0.40;0.40;;;;;;;8.14;100.00;99523.31;5058533;28;20036;-75
2024/03/13 07:24:55;;;;;;;0.40;0.40;;;;;;;8.16;100.00;99529.31;5058589;28;20036;-75
2024/03/13 07:27:20;;;;;;;0.40;0.40;;;;;;;8.20;100.00;99529.75;5042045;28;20028;-75
2024/03/13 07:29:46;;;;;;;0.50;0.50;;;;;;;8.26;100.00;99524.50;5042286;28;20043;-75
2024/03/13 07:32:14;;;;;;;0.40;0.40;;;;;;;8.32;100.00;99536.28;5058088;28;20437;-75
2024/03/13 07:34:41;;;;;;;0.40;0.40;;;;;;;8.35;100.00;99539.41;5058996;28;20040;-75
2024/03/13 07:37:07;;;;;;;0.50;0.50;;;;;;;8.36;100.00;99538.41;5058507;28;20032;-75
2024/03/13 07:39:33;;;;;;;0.40;0.40;;;;;;;8.40;100.00;99532.69;5041966;28;20039;-75
2024/03/13 07:41:58;;;;;;;0.50;0.50;;;;;;;8.45;100.00;99527.59;5041973;28;20178;-75
2024/03/13 07:44:24;;;;;;;0.40;0.40;;;;;;;8.49;100.00;99529.66;5041464;28;20467;-75
2024/03/13 07:46:51;;;;;;;0.40;0.40;;;;;;;8.45;100.00;99532.94;5058421;28;20033;-75
2024/03/13 07:49:17;;;;;;;0.40;0.40;;;;;;;8.47;100.00;99541.63;5042160;28;20127;-75
2024/03/13 07:51:45;;;;;;;0.40;0.40;;;;;;;8.46;100.00;99551.47;5058599;28;20054;-75
2024/03/13 07:54:11;;;;;;;0.40;0.40;;;;;;;8.41;100.00;99556.59;5042033;28;20071;-75
2024/03/13 07:56:37;;;;;;;0.40;0.40;;;;;;;8.49;100.00;99558.31;5057765;28;20453;-75
2024/03/13 07:59:06;;;;;;;0.40;0.40;;;;;;;8.49;100.00;99561.81;5074558;28;20040;-75
2024/03/13 08:01:42;;;;;;;0.40;0.40;;;;;;;8.44;100.00;99561.59;5058641;28;20061;-75
2024/03/13 08:04:11;;;;;;;0.40;0.40;;;;;;;8.38;100.00;99564.97;5057694;28;20028;-75
2024/03/13 08:06:38;;;;;;;0.50;0.50;;;;;;;8.40;100.00;99571.00;5074552;28;20028;-75
2024/03/13 08:09:04;;;;;;;0.40;0.40;;;;;;;8.39;100.00;99572.03;5074356;28;20036;-75
2024/03/13 08:11:31;;;;;;;0.43;0.43;;;;;;;8.42;100.00;99570.81;5057654;28;20028;-75
2024/03/13 08:13:58;;;;;;;0.40;0.40;;;;;;;8.44;100.00;99582.16;5058185;28;20029;-75
2024/03/13 08:16:24;;;;;;;0.43;0.43;;;;;;;8.41;100.00;99583.38;5057355;28;20393;-75
2024/03/13 08:18:49;;;;;;;0.40;0.40;;;;;;;8.39;100.00;99580.06;5041266;28;20036;-75
2024/03/13 08:21:16;;;;;;;0.50;0.50;;;;;;;8.34;100.00;99575.25;5040714;28;20467;-75
2024/03/13 08:23:44;;;;;;;0.40;0.40;;;;;;;8.43;100.00;99577.84;5041108;28;20464;-75
2024/03/13 08:26:13;;;;;;;0.40;0.40;;;;;;;8.46;100.00;99580.13;5073725;28;20398;-75
2024/03/13 08:28:40;;;;;;;0.40;0.40;;;;;;;8.47;100.00;99581.81;5041133;28;20494;-75
2024/03/13 08:31:06;;;;;;;0.40;0.40;;;;;;;8.43;100.00;99591.22;5041328;28;20078;-76
2024/03/13 08:33:32;;;;;;;0.50;0.50;;;;;;;8.43;100.00;99589.38;5040905;28;20060;-75
2024/03/13 08:36:01;;;;;;;0.50;0.50;;;;;;;8.41;100.00;99595.94;5075169;28;20131;-75
2024/03/13 08:38:28;;;;;;;0.50;0.50;;;;;;;8.38;100.00;99589.91;5041416;28;20048;-76
2024/03/13 08:40:54;;;;;;;0.43;0.43;;;;;;;8.50;100.00;99606.34;5057968;28;20025;-75
2024/03/13 08:43:21;;;;;;;0.45;0.45;;;;;;;8.58;100.00;99600.03;5074023;28;20082;-76
2024/03/13 08:45:47;;;;;;;0.40;0.40;;;;;;;8.68;100.00;99607.75;5057046;28;20033;-75
2024/03/13 08:48:13;;;;;;;0.50;0.50;;;;;;;8.75;100.00;99603.28;5040355;28;20033;-75
2024/03/13 08:50:40;;;;;;;0.50;0.50;;;;;;;8.68;100.00;99603.22;5040713;28;20527;-75
2024/03/13 08:53:06;;;;;;;0.40;0.40;;;;;;;8.63;100.00;99605.66;5057527;28;20036;-75
2024/03/13 08:55:34;;;;;;;0.40;0.40;;;;;;;8.64;100.00;99606.47;5040631;28;20081;-75
2024/03/13 08:58:03;;;;;;;0.40;0.40;;;;;;;8.68;100.00;99605.06;5057665;28;20093;-75
2024/03/13 09:00:29;;;;;;;0.50;0.50;;;;;;;8.74;100.00;99597.09;5040548;28;20128;-75
2024/03/13 09:02:57;;;;;;;0.50;0.50;;;;;;;8.87;100.00;99604.44;5040466;28;20057;-75
2024/03/13 09:05:23;;;;;;;0.50;0.50;;;;;;;8.88;100.00;99607.94;5073360;28;20068;-75
2024/03/13 09:07:49;;;;;;;0.50;0.50;;;;;;;8.88;100.00;99606.06;5073099;28;20059;-75
2024/03/13 09:10:18;;;;;;;0.50;0.50;;;;;;;9.00;100.00;99615.28;5040489;28;20028;-75
2024/03/13 09:12:46;;;;;;;0.50;0.50;;;;;;;9.15;100.00;99614.34;5073365;28;20025;-75
2024/03/13 09:15:13;;;;;;;0.60;0.60;;;;;;;9.50;100.00;99617.91;5073643;28;20122;-75
2024/03/13 09:17:39;;;;;;;0.40;0.40;;;;;;;9.65;100.00;99615.09;5073234;28;20115;-75
2024/03/13 09:20:06;;;;;;;0.50;0.50;;;;;;;9.51;100.00;99619.56;5056532;28;20034;-75
2024/03/13 09:22:31;;;;;;;0.40;0.40;;;;;;;9.41;100.00;99624.44;5056249;28;20035;-75
2024/03/13 09:24:57;;;;;;;0.50;0.50;;;;;;;9.42;100.00;99623.41;5039960;28;20024;-75
2024/03/13 09:27:23;;;;;;;0.50;0.50;;;;;;;9.63;100.00;99634.09;5040440;28;20052;-75
2024/03/13 09:29:52;;;;;;;0.40;0.40;;;;;;;9.72;100.00;99625.88;5039919;28;20390;-75
2024/03/13 09:32:21;;;;;;;0.40;0.40;;;;;;;9.72;100.00;99631.25;5056044;28;20095;-75
2024/03/13 09:34:47;;;;;;;0.50;0.50;;;;;;;9.69;100.00;99633.28;5056741;28;20032;-75
2024/03/13 09:37:16;;;;;;;0.50;0.50;;;;;;;9.64;100.00;99635.75;5057403;28;20041;-75
2024/03/13 09:39:41;;;;;;;0.40;0.40;;;;;;;9.58;100.00;99633.00;5072786;28;20146;-75
2024/03/13 09:42:15;;;;;;;0.40;0.40;;;;;;;9.58;100.00;99636.53;5039677;28;20455;-75
2024/03/13 09:44:42;;;;;;;0.50;0.50;;;;;;;9.59;100.00;99643.56;5072558;28;20078;-75
2024/03/13 09:47:08;;;;;;;0.50;0.50;;;;;;;9.74;100.00;99645.28;5072577;28;20057;-75
2024/03/13 09:49:34;;;;;;;0.50;0.50;;;;;;;10.07;100.00;99642.78;5039758;28;20024;-75
2024/03/13 09:52:01;;;;;;;0.50;0.50;;;;;;;10.21;100.00;99644.47;5055850;28;20479;-75
2024/03/13 09:54:26;;;;;;;0.50;0.50;;;;;;;9.81;100.00;99646.97;5039836;28;20055;-76
2024/03/13 09:56:52;;;;;;;0.40;0.40;;;;;;;9.52;100.00;99653.41;5039361;28;20513;-76
2024/03/13 09:59:18;;;;;;;0.50;0.50;;;;;;;9.49;100.00;99648.44;5039525;28;20044;-77
2024/03/13 10:01:51;;;;;;;0.50;0.50;;;;;;;9.63;100.00;99658.25;5055877;28;20048;-76
2024/03/13 10:04:24;;;;;;;;;;;;;;;9.47;100.00;99671.94;5039566;28;20033;-76
2024/03/13 10:06:56;;;;;;;0.50;0.50;;;;;;;9.30;100.00;99674.09;5057696;28;19964;-76
2024/03/13 10:09:28;;;;;;;0.60;0.60;;;;;;;9.21;100.00;99686.81;5072337;28;20447;-76
2024/03/13 10:11:57;;;;;;;0.40;0.40;;;;;;;9.20;100.00;99676.28;5072189;28;20028;-76
2024/03/13 10:14:24;;;;;;;0.50;0.50;;;;;;;9.19;100.00;99688.03;5055499;28;20029;-76
2024/03/13 10:16:52;;;;;;;0.50;0.50;;;;;;;9.29;100.00;99685.00;5055878;28;20066;-76
2024/03/13 10:19:21;;;;;;;0.50;0.50;;;;;;;9.29;100.00;99701.09;5072367;28;20548;-76
2024/03/13 10:21:47;;;;;;;0.47;0.47;;;;;;;9.31;100.00;99694.50;5039300;28;20067;-75
2024/03/13 10:24:13;;;;;;;0.40;0.40;;;;;;;9.54;100.00;99693.47;5055719;28;20459;-75
2024/03/13 10:26:40;;;;;;;0.50;0.50;;;;;;;9.75;100.00;99704.16;5039329;28;20056;-76
2024/03/13 10:29:08;;;;;;;0.50;0.50;;;;;;;9.76;100.00;99697.75;5039208;28;20093;-75
2024/03/13 10:31:35;;;;;;;0.40;0.40;;;;;;;9.53;100.00;99708.75;5039371;28;20471;-77
2024/03/13 10:34:02;;;;;;;0.50;0.50;;;;;;;9.48;100.00;99705.81;5055860;28;20363;-76
2024/03/13 10:36:28;;;;;;;0.52;0.52;;;;;;;9.44;100.00;99704.53;5055944;28;20028;-76
2024/03/13 10:38:56;;;;;;;0.60;0.60;;;;;;;9.72;100.00;99712.59;5072112;28;20021;-76
2024/03/13 10:41:22;;;;;;;0.50;0.50;;;;;;;9.95;100.00;99708.81;5073443;28;20111;-76
2024/03/13 10:43:47;;;;;;;0.60;0.60;;;;;;;10.12;100.00;99712.84;5039748;28;20115;-76
2024/03/13 10:46:13;;;;;;;0.60;0.60;;;;;;;10.16;100.00;99713.25;5043167;28;20138;-76
2024/03/13 10:48:39;;;;;;;0.57;0.57;;;;;;;10.24;100.00;99719.31;5043106;28;20042;-76
2024/03/13 10:51:12;;;;;;;0.50;0.50;;;;;;;10.17;100.00;99723.00;5042978;28;20033;-76
2024/03/13 10:53:37;;;;;;;0.50;0.50;;;;;;;10.18;100.00;99714.72;5059537;28;20033;-76
2024/03/13 10:56:04;;;;;;;0.60;0.60;;;;;;;10.18;100.00;99721.97;5042881;28;20066;-76
2024/03/13 10:58:31;;;;;;;0.50;0.50;;;;;;;9.89;100.00;99729.22;5059898;28;20385;-76
2024/03/13 11:00:59;;;;;;;0.50;0.50;;;;;;;9.49;100.00;99725.41;5059671;28;20087;-76
2024/03/13 11:03:26;;;;;;;0.50;0.50;;;;;;;9.30;100.00;99730.44;5042919;28;20040;-76
2024/03/13 11:05:52;;;;;;;0.50;0.50;;;;;;;9.13;100.00;99735.22;5059481;28;20029;-76
2024/03/13 11:08:17;;;;;;;0.50;0.50;;;;;;;9.07;100.00;99732.47;5059304;28;20043;-76
2024/03/13 11:10:44;;;;;;;0.50;0.50;;;;;;;9.12;100.00;99733.56;5076627;28;20464;-76
2024/03/13 11:13:10;;;;;;;0.40;0.40;;;;;;;9.29;100.00;99736.81;5042835;28;20529;-76
2024/03/13 11:15:38;;;;;;;0.60;0.60;;;;;;;9.72;100.00;99742.13;5042760;28;20036;-76
2024/03/13 11:18:04;;;;;;;0.40;0.40;;;;;;;10.12;100.00;99748.59;5075508;28;20166;-75
2024/03/13 11:20:37;;;;;;;0.50;0.50;;;;;;;9.83;100.00;99746.94;5075548;28;20033;-75
2024/03/13 11:23:05;;;;;;;0.57;0.57;;;;;;;9.36;100.00;99756.47;5058864;28;20067;-76
2024/03/13 11:25:31;;;;;;;0.50;0.50;;;;;;;9.46;100.00;99758.84;5059102;28;20463;-76
2024/03/13 11:27:59;;;;;;;0.60;0.60;;;;;;;9.84;100.00;99759.38;5042474;28;20048;-76
2024/03/13 11:30:25;;;;;;;0.50;0.50;;;;;;;10.12;100.00;99751.28;5042011;28;20086;-76
2024/03/13 11:32:53;;;;;;;0.55;0.55;;;;;;;10.02;100.00;99740.03;5058243;28;20033;-76
2024/03/13 11:35:19;;;;;;;0.50;0.50;;;;;;;9.98;100.00;99746.03;5074911;28;20048;-76
2024/03/13 11:37:45;;;;;;;0.60;0.60;;;;;;;10.15;100.00;99741.16;5042149;28;20090;-76
2024/03/13 11:40:12;;;;;;;0.50;0.50;;;;;;;10.62;100.00;99750.31;5042040;28;20028;-76
2024/03/13 11:42:37;;;;;;;0.60;0.60;;;;;;;10.45;100.00;99755.19;5058079;28;20033;-76
2024/03/13 11:45:23;;;;;;;0.57;0.57;;;;;;;9.91;100.00;99754.84;5041949;28;20429;-76
2024/03/13 11:47:50;;;;;;;0.52;0.52;;;;;;;9.65;100.00;99760.84;5059615;28;20043;-76
2024/03/13 11:50:16;;;;;;;0.50;0.50;;;;;;;9.76;100.00;99755.97;5058823;28;20040;-76
2024/03/13 11:53:00;;;;;;;0.60;0.60;;;;;;;9.94;100.00;99758.19;5041748;28;20032;-76